METAR Data
IDs: Format: Raw Decoded Include TAF

Data at: 1155 UTC 23 Sep 2018

KDWU 231056Z AUTO 11004KT 10SM OVC006 15/14 A3012 RMK AO2 SLP199 T01500144 PNO $
KDWU 230956Z AUTO 00000KT 10SM OVC006 15/15 A3012 RMK AO2 SLP199 T01500150 PNO $
KDWU 230856Z AUTO 00000KT 10SM OVC006 15/14 A3013 RMK AO2 RAE52 SLP201 6//// T01500144 56010 PNO $
KDWU 230756Z AUTO 00000KT 10SM -RA BKN008 OVC085 15/14 A3013 RMK AO2 SLP202 T01500144 PNO $
KDWU 230656Z AUTO 00000KT 8SM -RA BKN008 OVC070 15/14 A3014 RMK AO2 SLP203 T01500144 PNO $
KDWU 230556Z AUTO 00000KT 10SM -RA BKN008 OVC070 15/14 A3016 RMK AO2 CIG 006V013 SLP210 6//// T01500144 10178 20150 58004 PNO $
KDWU 230517Z AUTO 00000KT 10SM -RA BKN010 BKN028 OVC060 15/14 A3017 RMK AO2 CIG 007V018 PNO $
KDWU 230456Z AUTO 10004KT 8SM -RA FEW010 BKN049 OVC060 15/14 A3016 RMK AO2 SLP212 T01500144 PNO $
KDWU 230447Z AUTO VRB03KT 6SM RA BR SCT010 BKN032 OVC060 15/14 A3016 RMK AO2 PNO $
KDWU 230432Z AUTO 00000KT 10SM -RA BKN010 OVC060 15/14 A3018 RMK AO2 CIG 007V012 PNO $
KDWU 230356Z AUTO 00000KT 10SM -RA BKN008 BKN034 BKN055 16/15 A3018 RMK AO2 SLP219 T01560150 402220156 PNO $
KDWU 230256Z AUTO 00000KT 10SM -RA FEW008 BKN065 OVC090 16/16 A3017 RMK AO2 SLP214 6//// T01610156 50006 PNO $
KDWU 230241Z AUTO 00000KT 10SM -RA FEW008 SCT055 BKN070 16/15 A3018 RMK AO2 PNO $
KDWU 230156Z AUTO 00000KT 10SM -RA FEW012 SCT075 OVC090 16/15 A3018 RMK AO2 SLP217 T01610150 PNO $
KDWU 230056Z AUTO 00000KT 9SM RA FEW055 BKN085 OVC100 17/15 A3017 RMK AO2 SLP214 T01670150 PNO $
KDWU 222356Z AUTO VRB03KT 10SM -RA FEW055 BKN090 OVC110 18/16 A3015 RMK AO2 RAB18 SLP209 6//// T01780156 10217 20178 58002 PNO $
KDWU 222256Z AUTO VRB03KT 10SM OVC110 19/16 A3016 RMK AO2 SLP211 T01940161 PNO $
KDWU 222156Z AUTO VRB03KT 10SM SCT031 OVC110 20/17 A3016 RMK AO2 SLP210 T02000167 PNO $
KDWU 222056Z AUTO VRB05KT 10SM OVC031 21/17 A3016 RMK AO2 SLP210 6//// T02060167 56002 PNO $
KDWU 222051Z AUTO 35005KT 10SM OVC031 21/17 A3016 RMK AO2 PNO $
KDWU 221956Z AUTO 00000KT 10SM BKN027 22/17 A3015 RMK AO2 SLP208 T02170167 PNO $
KDWU 221856Z AUTO 00000KT 10SM OVC027 21/16 A3017 RMK AO2 SLP213 T02110161 PNO $
KDWU 221756Z AUTO 00000KT 10SM OVC025 21/17 A3018 RMK AO2 SLP219 6//// T02110167 10217 20189 58004 PNO $
KDWU 221656Z AUTO 01003KT 10SM OVC027 21/16 A3019 RMK AO2 SLP222 T02060161 PNO $
KDWU 221633Z AUTO 01003KT 10SM BKN027 OVC033 21/16 A3019 RMK AO2 PNO $
KDWU 221556Z AUTO 00000KT 10SM BKN031 22/16 A3019 RMK AO2 SLP221 T02170161 PNO $
KDWU 221456Z AUTO VRB03KT 10SM OVC033 21/16 A3020 RMK AO2 SLP223 6//// T02110161 53003 PNO $
KDWU 221356Z AUTO 00000KT 10SM BKN033 OVC065 20/16 A3019 RMK AO2 SLP221 T02000156 PNO $
KDWU 221256Z AUTO 01004KT 10SM OVC065 19/15 A3019 RMK AO2 SLP220 T01890150 PNO $
KDWU 221056Z AUTO 00000KT 10SM OVC046 19/16 A3017 RMK AO2 SLP212 T01940156 PNO $
KDWU 220956Z AUTO 00000KT 10SM BKN049 OVC065 20/16 A3015 RMK AO2 SLP204 T02000156 PNO $
KDWU 220756Z AUTO 00000KT 10SM -RA OVC043 22/20 A3012 RMK AO2 RAB43 SLP194 T02170200 PNO $
KDWU 220656Z AUTO 00000KT 10SM BKN041 22/21 A3011 RMK AO2 SLP189 T02170206 PNO $
KDWU 220556Z AUTO 00000KT 10SM OVC042 22/21 A3010 RMK AO2 SLP187 6//// T02170206 10239 20217 50003 PNO $
KDWU 220256Z AUTO 24003KT 10SM OVC110 22/20 A3009 RMK AO2 SLP184 6//// T02220200 53022 PNO $
KDWU 220156Z AUTO 00000KT 10SM CLR 23/21 A3006 RMK AO2 SLP176 T02280206 PNO $
KDWU 220056Z AUTO 00000KT 10SM CLR 23/21 A3005 RMK AO2 RAE13 SLP171 T02280211 PNO $
KDWU 212356Z AUTO VRB03KT 10SM -RA FEW049 SCT075 BKN100 24/21 A3002 RMK AO2 RAB25 SLP164 6//// T02390206 10311 20239 53009 PNO $